sensor_id;sensor_type;location;lat;lon;timestamp;P1;durP1;ratioP1;P2;durP2;ratioP2
37535;SDS011;23379;51.554;6.736;2022-09-30T00:02:17;2.10;;;2.00;;
37535;SDS011;23379;51.554;6.736;2022-09-30T00:04:43;1.67;;;1.67;;
37535;SDS011;23379;51.554;6.736;2022-09-30T00:07:08;2.83;;;2.60;;
37535;SDS011;23379;51.554;6.736;2022-09-30T00:09:34;2.50;;;2.38;;
37535;SDS011;23379;51.554;6.736;2022-09-30T00:11:59;10.55;;;2.78;;
37535;SDS011;23379;51.554;6.736;2022-09-30T00:14:25;3.92;;;2.83;;
37535;SDS011;23379;51.554;6.736;2022-09-30T00:16:50;1.40;;;1.40;;
37535;SDS011;23379;51.554;6.736;2022-09-30T00:19:16;1.95;;;1.85;;
37535;SDS011;23379;51.554;6.736;2022-09-30T00:21:42;1.67;;;1.67;;
37535;SDS011;23379;51.554;6.736;2022-09-30T00:24:07;1.45;;;1.45;;
37535;SDS011;23379;51.554;6.736;2022-09-30T00:26:33;2.10;;;2.00;;
37535;SDS011;23379;51.554;6.736;2022-09-30T00:28:59;1.42;;;1.42;;
37535;SDS011;23379;51.554;6.736;2022-09-30T00:31:26;2.30;;;2.20;;
37535;SDS011;23379;51.554;6.736;2022-09-30T00:33:53;1.85;;;1.75;;
37535;SDS011;23379;51.554;6.736;2022-09-30T00:39:13;1.55;;;1.55;;
37535;SDS011;23379;51.554;6.736;2022-09-30T00:41:43;1.92;;;1.83;;
37535;SDS011;23379;51.554;6.736;2022-09-30T00:47:03;1.55;;;1.55;;
37535;SDS011;23379;51.554;6.736;2022-09-30T00:49:31;1.88;;;1.77;;
37535;SDS011;23379;51.554;6.736;2022-09-30T00:51:57;1.83;;;1.73;;
37535;SDS011;23379;51.554;6.736;2022-09-30T00:54:23;1.85;;;1.75;;
37535;SDS011;23379;51.554;6.736;2022-09-30T00:56:54;1.95;;;1.85;;
37535;SDS011;23379;51.554;6.736;2022-09-30T00:59:23;1.75;;;1.65;;
37535;SDS011;23379;51.554;6.736;2022-09-30T01:01:52;1.55;;;1.55;;
37535;SDS011;23379;51.554;6.736;2022-09-30T01:04:25;2.35;;;2.25;;
37535;SDS011;23379;51.554;6.736;2022-09-30T01:06:54;1.30;;;1.30;;
37535;SDS011;23379;51.554;6.736;2022-09-30T01:09:19;6.97;;;2.25;;
37535;SDS011;23379;51.554;6.736;2022-09-30T01:11:45;1.65;;;1.55;;
37535;SDS011;23379;51.554;6.736;2022-09-30T01:14:12;2.00;;;1.90;;
37535;SDS011;23379;51.554;6.736;2022-09-30T01:32:43;6.93;;;2.38;;
37535;SDS011;23379;51.554;6.736;2022-09-30T01:35:20;2.72;;;2.53;;
37535;SDS011;23379;51.554;6.736;2022-09-30T01:43:06;1.50;;;1.50;;
37535;SDS011;23379;51.554;6.736;2022-09-30T01:45:36;1.50;;;1.50;;
37535;SDS011;23379;51.554;6.736;2022-09-30T01:50:55;1.35;;;1.35;;
37535;SDS011;23379;51.554;6.736;2022-09-30T01:53:39;1.45;;;1.45;;
37535;SDS011;23379;51.554;6.736;2022-09-30T01:56:18;2.03;;;1.92;;
37535;SDS011;23379;51.554;6.736;2022-09-30T01:58:53;1.42;;;1.42;;
37535;SDS011;23379;51.554;6.736;2022-09-30T02:01:34;1.73;;;1.73;;
37535;SDS011;23379;51.554;6.736;2022-09-30T02:04:08;1.60;;;1.60;;
37535;SDS011;23379;51.554;6.736;2022-09-30T02:06:40;1.40;;;1.40;;
37535;SDS011;23379;51.554;6.736;2022-09-30T02:09:12;2.08;;;1.88;;
37535;SDS011;23379;51.554;6.736;2022-09-30T02:21:55;2.13;;;2.03;;
37535;SDS011;23379;51.554;6.736;2022-09-30T02:24:29;2.08;;;1.95;;
37535;SDS011;23379;51.554;6.736;2022-09-30T02:27:00;1.70;;;1.70;;
37535;SDS011;23379;51.554;6.736;2022-09-30T02:29:33;2.10;;;1.98;;
37535;SDS011;23379;51.554;6.736;2022-09-30T02:32:46;1.48;;;1.48;;
37535;SDS011;23379;51.554;6.736;2022-09-30T02:34:57;2.40;;;2.30;;
37535;SDS011;23379;51.554;6.736;2022-09-30T02:40:01;2.05;;;1.95;;
37535;SDS011;23379;51.554;6.736;2022-09-30T02:42:35;1.70;;;1.70;;
37535;SDS011;23379;51.554;6.736;2022-09-30T02:45:10;4.93;;;2.40;;
37535;SDS011;23379;51.554;6.736;2022-09-30T02:50:32;2.20;;;2.10;;
37535;SDS011;23379;51.554;6.736;2022-09-30T02:53:14;1.55;;;1.55;;
37535;SDS011;23379;51.554;6.736;2022-09-30T02:59:12;1.65;;;1.60;;
37535;SDS011;23379;51.554;6.736;2022-09-30T03:01:38;1.77;;;1.73;;
37535;SDS011;23379;51.554;6.736;2022-09-30T03:04:07;1.65;;;1.65;;
37535;SDS011;23379;51.554;6.736;2022-09-30T03:06:34;3.35;;;3.03;;
37535;SDS011;23379;51.554;6.736;2022-09-30T03:09:00;2.50;;;2.30;;
37535;SDS011;23379;51.554;6.736;2022-09-30T03:11:26;2.05;;;1.98;;
37535;SDS011;23379;51.554;6.736;2022-09-30T03:19:38;1.90;;;1.80;;
37535;SDS011;23379;51.554;6.736;2022-09-30T03:30:24;1.45;;;1.45;;
37535;SDS011;23379;51.554;6.736;2022-09-30T03:35:33;2.08;;;1.98;;
37535;SDS011;23379;51.554;6.736;2022-09-30T03:40:45;1.73;;;1.70;;
37535;SDS011;23379;51.554;6.736;2022-09-30T03:46:23;2.63;;;2.42;;
37535;SDS011;23379;51.554;6.736;2022-09-30T03:48:57;1.80;;;1.80;;
37535;SDS011;23379;51.554;6.736;2022-09-30T03:51:27;3.05;;;2.78;;
37535;SDS011;23379;51.554;6.736;2022-09-30T03:53:53;1.92;;;1.83;;
37535;SDS011;23379;51.554;6.736;2022-09-30T03:56:29;3.03;;;2.58;;
37535;SDS011;23379;51.554;6.736;2022-09-30T03:58:55;2.83;;;2.60;;
37535;SDS011;23379;51.554;6.736;2022-09-30T04:01:21;1.95;;;1.85;;
37535;SDS011;23379;51.554;6.736;2022-09-30T04:03:51;1.90;;;1.80;;
37535;SDS011;23379;51.554;6.736;2022-09-30T04:06:21;2.20;;;2.10;;
37535;SDS011;23379;51.554;6.736;2022-09-30T04:08:48;1.80;;;1.73;;
37535;SDS011;23379;51.554;6.736;2022-09-30T04:11:14;2.60;;;2.50;;
37535;SDS011;23379;51.554;6.736;2022-09-30T04:13:40;2.67;;;2.47;;
37535;SDS011;23379;51.554;6.736;2022-09-30T04:16:05;1.98;;;1.88;;
37535;SDS011;23379;51.554;6.736;2022-09-30T04:18:35;2.92;;;1.67;;
37535;SDS011;23379;51.554;6.736;2022-09-30T04:21:06;2.38;;;2.28;;
37535;SDS011;23379;51.554;6.736;2022-09-30T04:23:33;2.72;;;2.53;;
37535;SDS011;23379;51.554;6.736;2022-09-30T04:26:03;3.22;;;2.70;;
37535;SDS011;23379;51.554;6.736;2022-09-30T04:28:30;2.58;;;2.35;;
37535;SDS011;23379;51.554;6.736;2022-09-30T04:31:03;2.78;;;2.58;;
37535;SDS011;23379;51.554;6.736;2022-09-30T04:33:30;2.38;;;2.25;;
37535;SDS011;23379;51.554;6.736;2022-09-30T04:35:56;41.03;;;3.15;;
37535;SDS011;23379;51.554;6.736;2022-09-30T04:38:22;4.55;;;3.13;;
37535;SDS011;23379;51.554;6.736;2022-09-30T04:40:52;2.15;;;2.05;;
37535;SDS011;23379;51.554;6.736;2022-09-30T04:43:21;1.95;;;1.85;;
37535;SDS011;23379;51.554;6.736;2022-09-30T04:45:48;2.28;;;2.15;;
37535;SDS011;23379;51.554;6.736;2022-09-30T04:48:14;1.35;;;1.35;;
37535;SDS011;23379;51.554;6.736;2022-09-30T04:51:01;2.15;;;2.05;;
37535;SDS011;23379;51.554;6.736;2022-09-30T04:53:52;2.53;;;2.13;;
37535;SDS011;23379;51.554;6.736;2022-09-30T04:56:18;1.88;;;1.77;;
37535;SDS011;23379;51.554;6.736;2022-09-30T04:58:43;3.00;;;2.00;;
37535;SDS011;23379;51.554;6.736;2022-09-30T05:01:10;3.42;;;2.38;;
37535;SDS011;23379;51.554;6.736;2022-09-30T05:03:37;1.60;;;1.60;;
37535;SDS011;23379;51.554;6.736;2022-09-30T05:06:03;3.60;;;2.22;;
37535;SDS011;23379;51.554;6.736;2022-09-30T05:08:29;2.90;;;2.70;;
37535;SDS011;23379;51.554;6.736;2022-09-30T05:10:57;2.55;;;2.08;;
37535;SDS011;23379;51.554;6.736;2022-09-30T05:13:24;3.08;;;2.75;;
37535;SDS011;23379;51.554;6.736;2022-09-30T05:15:51;2.05;;;1.92;;
37535;SDS011;23379;51.554;6.736;2022-09-30T05:18:17;2.67;;;2.50;;
37535;SDS011;23379;51.554;6.736;2022-09-30T05:20:43;1.50;;;1.50;;
37535;SDS011;23379;51.554;6.736;2022-09-30T05:23:09;1.30;;;1.30;;
37535;SDS011;23379;51.554;6.736;2022-09-30T05:25:34;1.65;;;1.65;;
37535;SDS011;23379;51.554;6.736;2022-09-30T05:28:00;2.08;;;1.98;;
37535;SDS011;23379;51.554;6.736;2022-09-30T05:30:25;2.00;;;1.90;;
37535;SDS011;23379;51.554;6.736;2022-09-30T05:32:51;1.70;;;1.60;;
37535;SDS011;23379;51.554;6.736;2022-09-30T05:35:17;2.05;;;1.95;;
37535;SDS011;23379;51.554;6.736;2022-09-30T05:37:42;2.25;;;2.13;;
37535;SDS011;23379;51.554;6.736;2022-09-30T05:40:07;2.30;;;2.20;;
37535;SDS011;23379;51.554;6.736;2022-09-30T05:42:33;2.80;;;2.58;;
37535;SDS011;23379;51.554;6.736;2022-09-30T05:45:01;1.70;;;1.70;;
37535;SDS011;23379;51.554;6.736;2022-09-30T05:47:28;2.13;;;2.03;;
37535;SDS011;23379;51.554;6.736;2022-09-30T05:49:53;1.30;;;1.30;;
37535;SDS011;23379;51.554;6.736;2022-09-30T05:52:18;1.40;;;1.40;;
37535;SDS011;23379;51.554;6.736;2022-09-30T05:54:44;1.67;;;1.67;;
37535;SDS011;23379;51.554;6.736;2022-09-30T05:57:10;1.40;;;1.40;;
37535;SDS011;23379;51.554;6.736;2022-09-30T05:59:35;1.95;;;1.85;;
37535;SDS011;23379;51.554;6.736;2022-09-30T06:02:02;1.52;;;1.52;;
37535;SDS011;23379;51.554;6.736;2022-09-30T06:04:27;2.40;;;2.30;;
37535;SDS011;23379;51.554;6.736;2022-09-30T06:06:53;4.55;;;2.83;;
37535;SDS011;23379;51.554;6.736;2022-09-30T06:09:18;1.90;;;1.85;;
37535;SDS011;23379;51.554;6.736;2022-09-30T06:11:44;1.77;;;1.67;;
37535;SDS011;23379;51.554;6.736;2022-09-30T06:14:09;10.80;;;2.95;;
37535;SDS011;23379;51.554;6.736;2022-09-30T06:16:34;1.60;;;1.60;;
37535;SDS011;23379;51.554;6.736;2022-09-30T06:19:00;1.83;;;1.77;;
37535;SDS011;23379;51.554;6.736;2022-09-30T06:21:25;3.20;;;2.70;;
37535;SDS011;23379;51.554;6.736;2022-09-30T06:23:53;2.08;;;1.98;;
37535;SDS011;23379;51.554;6.736;2022-09-30T06:26:18;2.20;;;2.10;;
37535;SDS011;23379;51.554;6.736;2022-09-30T06:28:44;2.45;;;1.88;;
37535;SDS011;23379;51.554;6.736;2022-09-30T06:31:09;2.45;;;2.25;;
37535;SDS011;23379;51.554;6.736;2022-09-30T06:33:36;2.08;;;1.98;;
37535;SDS011;23379;51.554;6.736;2022-09-30T06:36:01;2.13;;;2.03;;
37535;SDS011;23379;51.554;6.736;2022-09-30T06:38:29;1.48;;;1.48;;
37535;SDS011;23379;51.554;6.736;2022-09-30T06:40:57;2.47;;;2.25;;
37535;SDS011;23379;51.554;6.736;2022-09-30T06:43:23;1.58;;;1.58;;
37535;SDS011;23379;51.554;6.736;2022-09-30T06:45:49;2.05;;;1.95;;
37535;SDS011;23379;51.554;6.736;2022-09-30T06:48:15;4.20;;;1.90;;
37535;SDS011;23379;51.554;6.736;2022-09-30T06:50:41;2.72;;;2.60;;
37535;SDS011;23379;51.554;6.736;2022-09-30T06:53:07;6.75;;;2.28;;
37535;SDS011;23379;51.554;6.736;2022-09-30T06:55:36;2.78;;;1.92;;
37535;SDS011;23379;51.554;6.736;2022-09-30T06:58:03;2.60;;;2.22;;
37535;SDS011;23379;51.554;6.736;2022-09-30T07:00:31;1.85;;;1.75;;
37535;SDS011;23379;51.554;6.736;2022-09-30T07:02:57;3.08;;;2.38;;
37535;SDS011;23379;51.554;6.736;2022-09-30T07:05:22;2.05;;;1.95;;
37535;SDS011;23379;51.554;6.736;2022-09-30T07:07:51;2.03;;;1.92;;
37535;SDS011;23379;51.554;6.736;2022-09-30T07:10:18;1.55;;;1.55;;
37535;SDS011;23379;51.554;6.736;2022-09-30T07:12:47;1.83;;;1.75;;
37535;SDS011;23379;51.554;6.736;2022-09-30T07:15:13;1.73;;;1.65;;
37535;SDS011;23379;51.554;6.736;2022-09-30T07:17:39;2.17;;;2.08;;
37535;SDS011;23379;51.554;6.736;2022-09-30T07:20:05;2.25;;;2.10;;
37535;SDS011;23379;51.554;6.736;2022-09-30T07:22:32;2.45;;;2.25;;
37535;SDS011;23379;51.554;6.736;2022-09-30T07:24:59;2.40;;;2.28;;
37535;SDS011;23379;51.554;6.736;2022-09-30T07:27:27;2.85;;;2.65;;
37535;SDS011;23379;51.554;6.736;2022-09-30T07:29:56;7.68;;;2.90;;
37535;SDS011;23379;51.554;6.736;2022-09-30T07:32:22;2.90;;;2.67;;
37535;SDS011;23379;51.554;6.736;2022-09-30T07:34:47;2.50;;;2.30;;
37535;SDS011;23379;51.554;6.736;2022-09-30T07:37:14;2.78;;;2.58;;
37535;SDS011;23379;51.554;6.736;2022-09-30T07:39:44;12.45;;;3.00;;
37535;SDS011;23379;51.554;6.736;2022-09-30T07:42:11;2.78;;;2.63;;
37535;SDS011;23379;51.554;6.736;2022-09-30T07:44:38;9.55;;;3.88;;
37535;SDS011;23379;51.554;6.736;2022-09-30T07:47:05;2.92;;;2.70;;
37535;SDS011;23379;51.554;6.736;2022-09-30T07:49:31;8.63;;;3.72;;
37535;SDS011;23379;51.554;6.736;2022-09-30T07:51:57;2.95;;;2.75;;
37535;SDS011;23379;51.554;6.736;2022-09-30T07:54:24;4.53;;;2.90;;
37535;SDS011;23379;51.554;6.736;2022-09-30T07:56:52;7.28;;;3.30;;
37535;SDS011;23379;51.554;6.736;2022-09-30T07:59:17;3.22;;;2.42;;
37535;SDS011;23379;51.554;6.736;2022-09-30T08:01:44;3.67;;;3.28;;
37535;SDS011;23379;51.554;6.736;2022-09-30T08:04:10;4.90;;;2.90;;
37535;SDS011;23379;51.554;6.736;2022-09-30T08:06:38;3.08;;;2.72;;
37535;SDS011;23379;51.554;6.736;2022-09-30T08:09:05;1.77;;;1.67;;
37535;SDS011;23379;51.554;6.736;2022-09-30T08:11:34;5.03;;;2.63;;
37535;SDS011;23379;51.554;6.736;2022-09-30T08:14:00;3.72;;;3.03;;
37535;SDS011;23379;51.554;6.736;2022-09-30T08:16:26;1.95;;;1.85;;
37535;SDS011;23379;51.554;6.736;2022-09-30T08:18:53;6.57;;;3.60;;
37535;SDS011;23379;51.554;6.736;2022-09-30T08:21:22;2.72;;;2.17;;
37535;SDS011;23379;51.554;6.736;2022-09-30T08:23:48;2.78;;;1.55;;
37535;SDS011;23379;51.554;6.736;2022-09-30T08:26:13;2.00;;;1.80;;
37535;SDS011;23379;51.554;6.736;2022-09-30T08:28:40;3.05;;;2.47;;
37535;SDS011;23379;51.554;6.736;2022-09-30T08:31:09;3.45;;;1.77;;
37535;SDS011;23379;51.554;6.736;2022-09-30T08:33:37;4.22;;;3.20;;
37535;SDS011;23379;51.554;6.736;2022-09-30T08:38:33;2.17;;;1.85;;
37535;SDS011;23379;51.554;6.736;2022-09-30T08:49:25;1.55;;;1.45;;
37535;SDS011;23379;51.554;6.736;2022-09-30T08:52:14;3.30;;;2.47;;
37535;SDS011;23379;51.554;6.736;2022-09-30T08:54:47;2.75;;;2.55;;
37535;SDS011;23379;51.554;6.736;2022-09-30T08:57:16;2.00;;;1.80;;
37535;SDS011;23379;51.554;6.736;2022-09-30T08:59:45;3.78;;;2.28;;
37535;SDS011;23379;51.554;6.736;2022-09-30T09:04:49;2.60;;;2.08;;
37535;SDS011;23379;51.554;6.736;2022-09-30T09:07:25;2.38;;;2.05;;
37535;SDS011;23379;51.554;6.736;2022-09-30T09:10:08;2.90;;;2.30;;
37535;SDS011;23379;51.554;6.736;2022-09-30T09:15:20;2.83;;;1.67;;
37535;SDS011;23379;51.554;6.736;2022-09-30T09:20:38;5.07;;;1.90;;
37535;SDS011;23379;51.554;6.736;2022-09-30T09:23:10;5.60;;;3.05;;
37535;SDS011;23379;51.554;6.736;2022-09-30T09:25:38;4.05;;;2.45;;
37535;SDS011;23379;51.554;6.736;2022-09-30T09:28:21;2.50;;;1.85;;
37535;SDS011;23379;51.554;6.736;2022-09-30T09:31:04;3.38;;;2.13;;
37535;SDS011;23379;51.554;6.736;2022-09-30T09:33:30;4.03;;;2.33;;
37535;SDS011;23379;51.554;6.736;2022-09-30T09:38:56;2.15;;;1.58;;
37535;SDS011;23379;51.554;6.736;2022-09-30T09:42:01;2.85;;;1.65;;
37535;SDS011;23379;51.554;6.736;2022-09-30T09:44:50;2.40;;;2.20;;
37535;SDS011;23379;51.554;6.736;2022-09-30T09:47:22;3.60;;;2.53;;
37535;SDS011;23379;51.554;6.736;2022-09-30T09:57:21;7.10;;;1.92;;
37535;SDS011;23379;51.554;6.736;2022-09-30T10:02:26;2.28;;;2.08;;
37535;SDS011;23379;51.554;6.736;2022-09-30T10:04:53;3.17;;;2.22;;
37535;SDS011;23379;51.554;6.736;2022-09-30T10:07:27;4.53;;;2.20;;
37535;SDS011;23379;51.554;6.736;2022-09-30T10:10:05;2.58;;;2.15;;
37535;SDS011;23379;51.554;6.736;2022-09-30T10:12:45;2.97;;;1.50;;
37535;SDS011;23379;51.554;6.736;2022-09-30T10:15:18;2.63;;;1.90;;
37535;SDS011;23379;51.554;6.736;2022-09-30T10:17:53;4.45;;;2.28;;
37535;SDS011;23379;51.554;6.736;2022-09-30T10:22:49;6.32;;;1.73;;
37535;SDS011;23379;51.554;6.736;2022-09-30T10:25:20;3.10;;;1.83;;
37535;SDS011;23379;51.554;6.736;2022-09-30T10:27:55;3.75;;;1.92;;
37535;SDS011;23379;51.554;6.736;2022-09-30T10:33:27;1.83;;;1.40;;
37535;SDS011;23379;51.554;6.736;2022-09-30T10:36:15;2.97;;;2.38;;
37535;SDS011;23379;51.554;6.736;2022-09-30T10:38:44;3.50;;;2.20;;
37535;SDS011;23379;51.554;6.736;2022-09-30T10:41:13;2.80;;;1.75;;
37535;SDS011;23379;51.554;6.736;2022-09-30T10:43:48;1.40;;;1.30;;
37535;SDS011;23379;51.554;6.736;2022-09-30T10:46:23;3.55;;;1.75;;
37535;SDS011;23379;51.554;6.736;2022-09-30T10:48:52;2.00;;;1.75;;
37535;SDS011;23379;51.554;6.736;2022-09-30T10:51:29;2.30;;;1.75;;
37535;SDS011;23379;51.554;6.736;2022-09-30T10:54:01;2.78;;;1.65;;
37535;SDS011;23379;51.554;6.736;2022-09-30T10:59:06;3.90;;;2.20;;
37535;SDS011;23379;51.554;6.736;2022-09-30T11:01:43;1.73;;;1.52;;
37535;SDS011;23379;51.554;6.736;2022-09-30T11:06:48;3.75;;;1.80;;
37535;SDS011;23379;51.554;6.736;2022-09-30T11:09:24;2.30;;;1.63;;
37535;SDS011;23379;51.554;6.736;2022-09-30T11:17:55;1.88;;;0.90;;
37535;SDS011;23379;51.554;6.736;2022-09-30T11:20:35;1.07;;;0.97;;
37535;SDS011;23379;51.554;6.736;2022-09-30T11:44:59;1.80;;;1.20;;
37535;SDS011;23379;51.554;6.736;2022-09-30T11:47:52;1.88;;;1.00;;
37535;SDS011;23379;51.554;6.736;2022-09-30T11:53:37;3.47;;;2.03;;
37535;SDS011;23379;51.554;6.736;2022-09-30T11:56:23;1.45;;;0.98;;
37535;SDS011;23379;51.554;6.736;2022-09-30T11:58:57;2.05;;;1.17;;
37535;SDS011;23379;51.554;6.736;2022-09-30T12:01:33;0.63;;;0.63;;
37535;SDS011;23379;51.554;6.736;2022-09-30T12:04:07;1.70;;;1.45;;
37535;SDS011;23379;51.554;6.736;2022-09-30T12:06:41;1.60;;;1.25;;
37535;SDS011;23379;51.554;6.736;2022-09-30T12:09:18;0.70;;;0.68;;
37535;SDS011;23379;51.554;6.736;2022-09-30T12:11:55;0.82;;;0.77;;
37535;SDS011;23379;51.554;6.736;2022-09-30T12:17:00;1.00;;;0.90;;
37535;SDS011;23379;51.554;6.736;2022-09-30T12:19:31;3.05;;;0.93;;
37535;SDS011;23379;51.554;6.736;2022-09-30T12:22:09;0.63;;;0.50;;
37535;SDS011;23379;51.554;6.736;2022-09-30T12:24:42;0.88;;;0.73;;
37535;SDS011;23379;51.554;6.736;2022-09-30T12:27:33;1.23;;;0.52;;
37535;SDS011;23379;51.554;6.736;2022-09-30T12:30:09;0.63;;;0.45;;
37535;SDS011;23379;51.554;6.736;2022-09-30T12:38:23;1.02;;;0.68;;
37535;SDS011;23379;51.554;6.736;2022-09-30T12:49:45;0.55;;;0.55;;
37535;SDS011;23379;51.554;6.736;2022-09-30T12:52:13;0.82;;;0.57;;
37535;SDS011;23379;51.554;6.736;2022-09-30T12:57:26;0.88;;;0.50;;
37535;SDS011;23379;51.554;6.736;2022-09-30T12:59:57;0.25;;;0.22;;
37535;SDS011;23379;51.554;6.736;2022-09-30T13:02:35;0.70;;;0.60;;
37535;SDS011;23379;51.554;6.736;2022-09-30T13:06:04;1.40;;;0.90;;
37535;SDS011;23379;51.554;6.736;2022-09-30T13:10:28;0.40;;;0.38;;
37535;SDS011;23379;51.554;6.736;2022-09-30T13:15:58;0.40;;;0.40;;
37535;SDS011;23379;51.554;6.736;2022-09-30T13:26:36;0.30;;;0.30;;
37535;SDS011;23379;51.554;6.736;2022-09-30T13:34:21;0.35;;;0.30;;
37535;SDS011;23379;51.554;6.736;2022-09-30T13:47:27;0.20;;;0.20;;
37535;SDS011;23379;51.554;6.736;2022-09-30T13:52:54;0.30;;;0.20;;
37535;SDS011;23379;51.554;6.736;2022-09-30T14:01:05;0.40;;;0.40;;
37535;SDS011;23379;51.554;6.736;2022-09-30T14:06:16;0.50;;;0.30;;
37535;SDS011;23379;51.554;6.736;2022-09-30T14:08:53;0.10;;;0.08;;
37535;SDS011;23379;51.554;6.736;2022-09-30T14:22:07;0.43;;;0.30;;
37535;SDS011;23379;51.554;6.736;2022-09-30T14:24:35;0.40;;;0.38;;
37535;SDS011;23379;51.554;6.736;2022-09-30T14:30:19;0.30;;;0.30;;
37535;SDS011;23379;51.554;6.736;2022-09-30T14:35:17;0.13;;;0.13;;
37535;SDS011;23379;51.554;6.736;2022-09-30T14:37:48;0.38;;;0.38;;
37535;SDS011;23379;51.554;6.736;2022-09-30T14:40:23;1.05;;;0.70;;
37535;SDS011;23379;51.554;6.736;2022-09-30T14:42:51;0.15;;;0.15;;
37535;SDS011;23379;51.554;6.736;2022-09-30T14:45:22;1.23;;;0.60;;
37535;SDS011;23379;51.554;6.736;2022-09-30T14:47:51;1.83;;;0.98;;
37535;SDS011;23379;51.554;6.736;2022-09-30T14:50:21;1.30;;;0.98;;
37535;SDS011;23379;51.554;6.736;2022-09-30T14:52:52;0.93;;;0.55;;
37535;SDS011;23379;51.554;6.736;2022-09-30T14:55:23;0.40;;;0.40;;
37535;SDS011;23379;51.554;6.736;2022-09-30T14:57:53;0.85;;;0.70;;
37535;SDS011;23379;51.554;6.736;2022-09-30T15:00:26;0.80;;;0.80;;
37535;SDS011;23379;51.554;6.736;2022-09-30T15:02:53;0.40;;;0.40;;
37535;SDS011;23379;51.554;6.736;2022-09-30T15:05:19;0.88;;;0.88;;
37535;SDS011;23379;51.554;6.736;2022-09-30T15:07:45;0.98;;;0.98;;
37535;SDS011;23379;51.554;6.736;2022-09-30T15:10:17;0.77;;;0.77;;
37535;SDS011;23379;51.554;6.736;2022-09-30T15:12:46;0.93;;;0.93;;
37535;SDS011;23379;51.554;6.736;2022-09-30T15:17:57;4.72;;;0.90;;
37535;SDS011;23379;51.554;6.736;2022-09-30T15:22:48;0.60;;;0.60;;
37535;SDS011;23379;51.554;6.736;2022-09-30T15:25:15;0.68;;;0.68;;
37535;SDS011;23379;51.554;6.736;2022-09-30T15:27:42;1.50;;;0.88;;
37535;SDS011;23379;51.554;6.736;2022-09-30T15:32:37;0.40;;;0.40;;
37535;SDS011;23379;51.554;6.736;2022-09-30T15:35:04;2.88;;;0.82;;
37535;SDS011;23379;51.554;6.736;2022-09-30T15:37:48;0.50;;;0.50;;
37535;SDS011;23379;51.554;6.736;2022-09-30T15:40:16;0.50;;;0.50;;
37535;SDS011;23379;51.554;6.736;2022-09-30T15:43:03;0.70;;;0.70;;
37535;SDS011;23379;51.554;6.736;2022-09-30T15:45:32;0.75;;;0.75;;
37535;SDS011;23379;51.554;6.736;2022-09-30T15:50:36;0.60;;;0.60;;
37535;SDS011;23379;51.554;6.736;2022-09-30T15:53:16;0.50;;;0.50;;
37535;SDS011;23379;51.554;6.736;2022-09-30T15:56:34;0.80;;;0.80;;
37535;SDS011;23379;51.554;6.736;2022-09-30T16:04:11;0.63;;;0.63;;
37535;SDS011;23379;51.554;6.736;2022-09-30T16:06:50;0.70;;;0.70;;
37535;SDS011;23379;51.554;6.736;2022-09-30T16:09:37;0.50;;;0.50;;
37535;SDS011;23379;51.554;6.736;2022-09-30T16:17:17;0.60;;;0.60;;
37535;SDS011;23379;51.554;6.736;2022-09-30T16:20:06;0.40;;;0.40;;
37535;SDS011;23379;51.554;6.736;2022-09-30T16:27:44;0.57;;;0.57;;
37535;SDS011;23379;51.554;6.736;2022-09-30T16:30:13;0.80;;;0.80;;
37535;SDS011;23379;51.554;6.736;2022-09-30T16:32:44;0.80;;;0.80;;
37535;SDS011;23379;51.554;6.736;2022-09-30T16:35:20;0.50;;;0.50;;
37535;SDS011;23379;51.554;6.736;2022-09-30T16:37:47;0.70;;;0.70;;
37535;SDS011;23379;51.554;6.736;2022-09-30T16:40:20;0.50;;;0.50;;
37535;SDS011;23379;51.554;6.736;2022-09-30T16:42:48;0.90;;;0.90;;
37535;SDS011;23379;51.554;6.736;2022-09-30T16:45:13;4.10;;;0.80;;
37535;SDS011;23379;51.554;6.736;2022-09-30T16:47:40;0.50;;;0.50;;
37535;SDS011;23379;51.554;6.736;2022-09-30T16:53:02;0.60;;;0.60;;
37535;SDS011;23379;51.554;6.736;2022-09-30T16:55:28;0.88;;;0.88;;
37535;SDS011;23379;51.554;6.736;2022-09-30T16:57:54;0.75;;;0.75;;
37535;SDS011;23379;51.554;6.736;2022-09-30T17:00:24;0.60;;;0.60;;
37535;SDS011;23379;51.554;6.736;2022-09-30T17:02:51;1.23;;;1.00;;
37535;SDS011;23379;51.554;6.736;2022-09-30T17:05:18;0.98;;;0.85;;
37535;SDS011;23379;51.554;6.736;2022-09-30T17:07:46;0.73;;;0.70;;
37535;SDS011;23379;51.554;6.736;2022-09-30T17:10:25;0.65;;;0.65;;
37535;SDS011;23379;51.554;6.736;2022-09-30T17:12:53;0.80;;;0.80;;
37535;SDS011;23379;51.554;6.736;2022-09-30T17:15:20;0.60;;;0.60;;
37535;SDS011;23379;51.554;6.736;2022-09-30T17:17:46;0.60;;;0.60;;
37535;SDS011;23379;51.554;6.736;2022-09-30T17:20:12;0.82;;;0.82;;
37535;SDS011;23379;51.554;6.736;2022-09-30T17:22:38;0.70;;;0.70;;
37535;SDS011;23379;51.554;6.736;2022-09-30T17:25:04;0.60;;;0.60;;
37535;SDS011;23379;51.554;6.736;2022-09-30T17:27:29;0.70;;;0.70;;
37535;SDS011;23379;51.554;6.736;2022-09-30T17:29:55;0.60;;;0.60;;
37535;SDS011;23379;51.554;6.736;2022-09-30T17:32:20;0.60;;;0.60;;
37535;SDS011;23379;51.554;6.736;2022-09-30T17:34:45;0.70;;;0.70;;
37535;SDS011;23379;51.554;6.736;2022-09-30T17:37:11;0.70;;;0.70;;
37535;SDS011;23379;51.554;6.736;2022-09-30T17:39:38;0.70;;;0.70;;
37535;SDS011;23379;51.554;6.736;2022-09-30T17:42:05;0.60;;;0.60;;
37535;SDS011;23379;51.554;6.736;2022-09-30T17:44:49;0.77;;;0.77;;
37535;SDS011;23379;51.554;6.736;2022-09-30T17:47:16;0.57;;;0.57;;
37535;SDS011;23379;51.554;6.736;2022-09-30T17:49:41;0.50;;;0.50;;
37535;SDS011;23379;51.554;6.736;2022-09-30T17:52:07;0.65;;;0.65;;
37535;SDS011;23379;51.554;6.736;2022-09-30T17:54:33;0.65;;;0.65;;
37535;SDS011;23379;51.554;6.736;2022-09-30T17:56:59;0.70;;;0.70;;
37535;SDS011;23379;51.554;6.736;2022-09-30T17:59:24;0.60;;;0.60;;
37535;SDS011;23379;51.554;6.736;2022-09-30T18:01:51;0.60;;;0.60;;
37535;SDS011;23379;51.554;6.736;2022-09-30T18:04:17;14.15;;;2.50;;
37535;SDS011;23379;51.554;6.736;2022-09-30T18:06:43;0.85;;;0.75;;
37535;SDS011;23379;51.554;6.736;2022-09-30T18:09:09;1.27;;;1.10;;
37535;SDS011;23379;51.554;6.736;2022-09-30T18:11:35;1.15;;;0.70;;
37535;SDS011;23379;51.554;6.736;2022-09-30T18:14:00;2.75;;;1.15;;
37535;SDS011;23379;51.554;6.736;2022-09-30T18:16:30;0.82;;;0.82;;
37535;SDS011;23379;51.554;6.736;2022-09-30T18:18:58;0.70;;;0.70;;
37535;SDS011;23379;51.554;6.736;2022-09-30T18:21:25;0.60;;;0.60;;
37535;SDS011;23379;51.554;6.736;2022-09-30T18:23:52;0.80;;;0.80;;
37535;SDS011;23379;51.554;6.736;2022-09-30T18:26:21;0.82;;;0.82;;
37535;SDS011;23379;51.554;6.736;2022-09-30T18:28:48;2.00;;;0.98;;
37535;SDS011;23379;51.554;6.736;2022-09-30T18:31:16;0.80;;;0.80;;
37535;SDS011;23379;51.554;6.736;2022-09-30T18:33:52;0.60;;;0.60;;
37535;SDS011;23379;51.554;6.736;2022-09-30T18:36:21;0.60;;;0.60;;
37535;SDS011;23379;51.554;6.736;2022-09-30T18:38:47;1.02;;;0.80;;
37535;SDS011;23379;51.554;6.736;2022-09-30T18:41:13;0.85;;;0.85;;
37535;SDS011;23379;51.554;6.736;2022-09-30T18:43:39;0.93;;;0.93;;
37535;SDS011;23379;51.554;6.736;2022-09-30T18:46:05;0.73;;;0.73;;
37535;SDS011;23379;51.554;6.736;2022-09-30T18:48:32;0.73;;;0.73;;
37535;SDS011;23379;51.554;6.736;2022-09-30T18:51:01;0.77;;;0.77;;
37535;SDS011;23379;51.554;6.736;2022-09-30T18:53:30;3.05;;;0.90;;
37535;SDS011;23379;51.554;6.736;2022-09-30T18:56:01;0.77;;;0.77;;
37535;SDS011;23379;51.554;6.736;2022-09-30T18:58:28;0.80;;;0.80;;
37535;SDS011;23379;51.554;6.736;2022-09-30T19:00:58;0.70;;;0.70;;
37535;SDS011;23379;51.554;6.736;2022-09-30T19:03:27;0.90;;;0.90;;
37535;SDS011;23379;51.554;6.736;2022-09-30T19:05:55;0.70;;;0.70;;
37535;SDS011;23379;51.554;6.736;2022-09-30T19:08:22;1.42;;;1.33;;
37535;SDS011;23379;51.554;6.736;2022-09-30T19:10:48;0.80;;;0.80;;
37535;SDS011;23379;51.554;6.736;2022-09-30T19:13:14;0.98;;;0.98;;
37535;SDS011;23379;51.554;6.736;2022-09-30T19:15:39;0.75;;;0.75;;